sensor_id;sensor_type;location;lat;lon;timestamp;pressure;altitude;pressure_sealevel;temperature;humidity
76126;BME280;65174;48.138;21.002;2023-04-03T00:02:40;99151.00;;;5.51;67.73
76126;BME280;65174;48.138;21.002;2023-04-03T00:05:43;99169.22;;;5.62;67.58
76126;BME280;65174;48.138;21.002;2023-04-03T00:08:45;99157.09;;;5.66;67.43
76126;BME280;65174;48.138;21.002;2023-04-03T00:11:47;99155.59;;;5.62;67.26
76126;BME280;65174;48.138;21.002;2023-04-03T00:14:49;99161.84;;;5.56;67.47
76126;BME280;65174;48.138;21.002;2023-04-03T00:17:51;99170.66;;;5.68;66.93
76126;BME280;65174;48.138;21.002;2023-04-03T00:20:53;99161.78;;;5.58;66.51
76126;BME280;65174;48.138;21.002;2023-04-03T00:23:55;99173.81;;;5.73;66.31
76126;BME280;65174;48.138;21.002;2023-04-03T00:26:57;99147.38;;;5.55;66.69
76126;BME280;65174;48.138;21.002;2023-04-03T00:29:59;99166.06;;;5.57;66.74
76126;BME280;65174;48.138;21.002;2023-04-03T00:33:02;99173.13;;;5.52;66.35
76126;BME280;65174;48.138;21.002;2023-04-03T00:36:11;99177.03;;;5.42;67.05
76126;BME280;65174;48.138;21.002;2023-04-03T00:39:14;99171.47;;;5.51;67.69
76126;BME280;65174;48.138;21.002;2023-04-03T00:42:16;99185.16;;;5.50;67.00
76126;BME280;65174;48.138;21.002;2023-04-03T00:45:23;99184.28;;;5.33;68.13
76126;BME280;65174;48.138;21.002;2023-04-03T00:48:29;99184.50;;;5.28;67.77
76126;BME280;65174;48.138;21.002;2023-04-03T00:51:32;99191.28;;;5.29;67.63
76126;BME280;65174;48.138;21.002;2023-04-03T00:54:36;99187.44;;;5.21;68.46
76126;BME280;65174;48.138;21.002;2023-04-03T00:57:38;99187.38;;;5.04;68.75
76126;BME280;65174;48.138;21.002;2023-04-03T01:00:42;99192.00;;;5.14;68.47
76126;BME280;65174;48.138;21.002;2023-04-03T01:03:45;99192.75;;;4.98;68.49
76126;BME280;65174;48.138;21.002;2023-04-03T01:06:48;99195.94;;;4.84;69.14
76126;BME280;65174;48.138;21.002;2023-04-03T01:09:53;99197.66;;;4.65;70.02
76126;BME280;65174;48.138;21.002;2023-04-03T01:12:59;99199.56;;;4.60;69.37
76126;BME280;65174;48.138;21.002;2023-04-03T01:16:04;99207.16;;;4.61;69.69
76126;BME280;65174;48.138;21.002;2023-04-03T01:19:11;99210.00;;;4.74;69.53
76126;BME280;65174;48.138;21.002;2023-04-03T01:22:26;99211.50;;;4.59;70.17
76126;BME280;65174;48.138;21.002;2023-04-03T01:25:34;99209.91;;;4.57;70.75
76126;BME280;65174;48.138;21.002;2023-04-03T01:28:37;99208.53;;;4.50;70.75
76126;BME280;65174;48.138;21.002;2023-04-03T01:32:00;99207.66;;;4.11;72.31
76126;BME280;65174;48.138;21.002;2023-04-03T01:35:04;99210.47;;;4.04;72.56
76126;BME280;65174;48.138;21.002;2023-04-03T01:38:08;99207.72;;;3.89;73.55
76126;BME280;65174;48.138;21.002;2023-04-03T01:41:10;99214.44;;;3.91;73.58
76126;BME280;65174;48.138;21.002;2023-04-03T01:44:12;99219.25;;;3.77;74.93
76126;BME280;65174;48.138;21.002;2023-04-03T01:47:14;99225.94;;;3.80;74.55
76126;BME280;65174;48.138;21.002;2023-04-03T01:50:17;99232.75;;;3.79;73.72
76126;BME280;65174;48.138;21.002;2023-04-03T01:53:21;99238.50;;;4.06;73.49
76126;BME280;65174;48.138;21.002;2023-04-03T01:56:23;99236.38;;;4.16;72.36
76126;BME280;65174;48.138;21.002;2023-04-03T01:59:26;99223.81;;;4.11;72.94
76126;BME280;65174;48.138;21.002;2023-04-03T02:02:28;99232.13;;;4.16;72.70
76126;BME280;65174;48.138;21.002;2023-04-03T02:05:30;99230.84;;;4.06;73.39
76126;BME280;65174;48.138;21.002;2023-04-03T02:08:32;99231.66;;;4.07;73.67
76126;BME280;65174;48.138;21.002;2023-04-03T02:11:34;99234.09;;;4.10;73.78
76126;BME280;65174;48.138;21.002;2023-04-03T02:14:36;99238.03;;;3.96;74.73
76126;BME280;65174;48.138;21.002;2023-04-03T02:17:38;99244.63;;;4.02;74.09
76126;BME280;65174;48.138;21.002;2023-04-03T02:20:40;99238.19;;;3.92;75.50
76126;BME280;65174;48.138;21.002;2023-04-03T02:23:42;99228.63;;;3.77;75.72
76126;BME280;65174;48.138;21.002;2023-04-03T02:26:45;99232.41;;;3.88;75.24
76126;BME280;65174;48.138;21.002;2023-04-03T02:29:46;99228.66;;;3.75;75.22
76126;BME280;65174;48.138;21.002;2023-04-03T02:32:49;99223.81;;;3.69;75.94
76126;BME280;65174;48.138;21.002;2023-04-03T02:35:55;99225.44;;;3.72;76.32
76126;BME280;65174;48.138;21.002;2023-04-03T02:38:58;99227.22;;;3.90;74.95
76126;BME280;65174;48.138;21.002;2023-04-03T02:42:00;99235.38;;;3.78;75.47
76126;BME280;65174;48.138;21.002;2023-04-03T02:45:03;99234.59;;;3.97;74.13
76126;BME280;65174;48.138;21.002;2023-04-03T02:48:05;99231.44;;;3.91;74.52
76126;BME280;65174;48.138;21.002;2023-04-03T02:51:07;99241.66;;;3.91;74.79
76126;BME280;65174;48.138;21.002;2023-04-03T02:54:09;99244.63;;;3.80;75.14
76126;BME280;65174;48.138;21.002;2023-04-03T02:57:15;99240.16;;;3.85;74.79
76126;BME280;65174;48.138;21.002;2023-04-03T03:00:17;99233.25;;;3.67;75.46
76126;BME280;65174;48.138;21.002;2023-04-03T03:03:19;99238.59;;;3.61;76.00
76126;BME280;65174;48.138;21.002;2023-04-03T03:06:21;99238.44;;;3.66;75.50
76126;BME280;65174;48.138;21.002;2023-04-03T03:09:23;99241.66;;;3.48;76.51
76126;BME280;65174;48.138;21.002;2023-04-03T03:12:26;99241.91;;;3.63;76.02
76126;BME280;65174;48.138;21.002;2023-04-03T03:15:27;99250.59;;;3.59;76.38
76126;BME280;65174;48.138;21.002;2023-04-03T03:18:30;99245.81;;;3.50;76.29
76126;BME280;65174;48.138;21.002;2023-04-03T03:21:32;99250.59;;;3.59;76.10
76126;BME280;65174;48.138;21.002;2023-04-03T03:24:35;99245.22;;;3.44;76.65
76126;BME280;65174;48.138;21.002;2023-04-03T03:27:38;99243.28;;;3.50;76.60
76126;BME280;65174;48.138;21.002;2023-04-03T03:30:41;99247.25;;;3.57;75.54
76126;BME280;65174;48.138;21.002;2023-04-03T03:33:43;99250.41;;;3.42;76.06
76126;BME280;65174;48.138;21.002;2023-04-03T03:36:45;99245.63;;;3.33;75.88
76126;BME280;65174;48.138;21.002;2023-04-03T03:39:47;99247.75;;;3.45;76.59
76126;BME280;65174;48.138;21.002;2023-04-03T03:42:49;99250.56;;;3.38;76.50
76126;BME280;65174;48.138;21.002;2023-04-03T03:45:52;99252.84;;;3.45;75.95
76126;BME280;65174;48.138;21.002;2023-04-03T03:48:54;99252.66;;;3.50;75.69
76126;BME280;65174;48.138;21.002;2023-04-03T03:51:56;99259.06;;;3.38;75.66
76126;BME280;65174;48.138;21.002;2023-04-03T03:54:58;99256.66;;;3.34;76.44
76126;BME280;65174;48.138;21.002;2023-04-03T03:58:00;99249.38;;;3.25;76.28
76126;BME280;65174;48.138;21.002;2023-04-03T04:01:06;99259.84;;;3.17;77.05
76126;BME280;65174;48.138;21.002;2023-04-03T04:04:14;99259.22;;;3.12;77.61
76126;BME280;65174;48.138;21.002;2023-04-03T04:07:16;99261.84;;;3.09;76.99
76126;BME280;65174;48.138;21.002;2023-04-03T04:10:19;99244.09;;;3.07;77.14
76126;BME280;65174;48.138;21.002;2023-04-03T04:13:21;99254.13;;;2.89;77.82
76126;BME280;65174;48.138;21.002;2023-04-03T04:16:23;99245.13;;;3.02;77.77
76126;BME280;65174;48.138;21.002;2023-04-03T04:19:26;99264.94;;;2.94;78.15
76126;BME280;65174;48.138;21.002;2023-04-03T04:22:28;99251.13;;;2.78;78.60
76126;BME280;65174;48.138;21.002;2023-04-03T04:25:30;99243.41;;;2.79;78.37
76126;BME280;65174;48.138;21.002;2023-04-03T04:28:32;99250.06;;;2.83;78.19
76126;BME280;65174;48.138;21.002;2023-04-03T04:31:36;99252.81;;;2.77;77.84
76126;BME280;65174;48.138;21.002;2023-04-03T04:34:39;99268.19;;;2.99;77.46
76126;BME280;65174;48.138;21.002;2023-04-03T04:37:41;99267.25;;;3.23;76.06
76126;BME280;65174;48.138;21.002;2023-04-03T04:40:43;99274.50;;;3.12;76.55
76126;BME280;65174;48.138;21.002;2023-04-03T04:43:46;99278.97;;;3.50;74.63
76126;BME280;65174;48.138;21.002;2023-04-03T04:46:48;99283.84;;;3.56;74.18
76126;BME280;65174;48.138;21.002;2023-04-03T04:49:50;99279.75;;;3.52;74.61
76126;BME280;65174;48.138;21.002;2023-04-03T04:52:52;99288.72;;;3.41;74.95
76126;BME280;65174;48.138;21.002;2023-04-03T04:55:54;99295.03;;;3.31;74.74
76126;BME280;65174;48.138;21.002;2023-04-03T04:58:57;99294.50;;;3.44;74.85
76126;BME280;65174;48.138;21.002;2023-04-03T05:02:01;99308.56;;;3.54;74.08
76126;BME280;65174;48.138;21.002;2023-04-03T05:05:03;99306.69;;;3.59;73.24
76126;BME280;65174;48.138;21.002;2023-04-03T05:08:07;99310.88;;;3.60;74.18
76126;BME280;65174;48.138;21.002;2023-04-03T05:11:14;99303.38;;;3.79;73.22
76126;BME280;65174;48.138;21.002;2023-04-03T05:14:18;99309.53;;;3.73;73.42
76126;BME280;65174;48.138;21.002;2023-04-03T05:17:20;99312.50;;;3.84;72.18
76126;BME280;65174;48.138;21.002;2023-04-03T05:20:26;99328.19;;;3.97;72.49
76126;BME280;65174;48.138;21.002;2023-04-03T05:23:28;99308.78;;;4.15;72.60
76126;BME280;65174;48.138;21.002;2023-04-03T05:26:33;99314.16;;;4.07;71.77
76126;BME280;65174;48.138;21.002;2023-04-03T05:29:36;99318.22;;;4.13;71.78
76126;BME280;65174;48.138;21.002;2023-04-03T05:32:39;99313.97;;;4.33;71.13
76126;BME280;65174;48.138;21.002;2023-04-03T05:35:54;99319.06;;;4.33;71.92
76126;BME280;65174;48.138;21.002;2023-04-03T05:39:01;99325.28;;;4.48;71.37
76126;BME280;65174;48.138;21.002;2023-04-03T05:42:03;99318.28;;;4.51;71.02
76126;BME280;65174;48.138;21.002;2023-04-03T05:45:06;99328.50;;;4.71;71.06
76126;BME280;65174;48.138;21.002;2023-04-03T05:48:09;99336.00;;;4.56;71.09
76126;BME280;65174;48.138;21.002;2023-04-03T05:51:17;99330.84;;;4.36;72.60
76126;BME280;65174;48.138;21.002;2023-04-03T05:54:28;99339.06;;;4.44;72.13
76126;BME280;65174;48.138;21.002;2023-04-03T05:57:37;99324.88;;;4.57;70.89
76126;BME280;65174;48.138;21.002;2023-04-03T06:00:39;99318.81;;;4.59;72.10
76126;BME280;65174;48.138;21.002;2023-04-03T06:03:41;99324.47;;;5.06;70.48
76126;BME280;65174;48.138;21.002;2023-04-03T06:06:48;99324.25;;;4.92;70.58
76126;BME280;65174;48.138;21.002;2023-04-03T06:10:49;99321.50;;;4.76;68.67
76126;BME280;65174;48.138;21.002;2023-04-03T06:20:31;99315.94;;;5.06;64.84
76126;BME280;65174;48.138;21.002;2023-04-03T06:34:50;99336.78;;;5.35;61.88
76126;BME280;65174;48.138;21.002;2023-04-03T06:50:55;99341.91;;;5.35;60.78
76126;BME280;65174;48.138;21.002;2023-04-03T07:00:05;99344.38;;;5.74;62.07
76126;BME280;65174;48.138;21.002;2023-04-03T07:04:28;99351.47;;;5.69;59.17
76126;BME280;65174;48.138;21.002;2023-04-03T07:37:17;99368.47;;;6.07;59.29
76126;BME280;65174;48.138;21.002;2023-04-03T07:59:10;99390.19;;;6.17;56.86
76126;BME280;65174;48.138;21.002;2023-04-03T08:31:18;99412.34;;;6.71;59.06
76126;BME280;65174;48.138;21.002;2023-04-03T08:35:20;99398.84;;;6.85;56.79
76126;BME280;65174;48.138;21.002;2023-04-03T08:39:22;99420.00;;;6.54;53.83
76126;BME280;65174;48.138;21.002;2023-04-03T08:59:47;99409.91;;;6.85;54.29
76126;BME280;65174;48.138;21.002;2023-04-03T09:04:11;99427.34;;;6.96;54.46
76126;BME280;65174;48.138;21.002;2023-04-03T09:39:51;99454.28;;;6.70;53.22
76126;BME280;65174;48.138;21.002;2023-04-03T09:48:59;99451.66;;;6.89;54.17
76126;BME280;65174;48.138;21.002;2023-04-03T10:09:02;99464.97;;;6.95;51.58
76126;BME280;65174;48.138;21.002;2023-04-03T10:13:35;99458.94;;;6.79;52.23
76126;BME280;65174;48.138;21.002;2023-04-03T10:58:56;99476.69;;;7.68;51.54
76126;BME280;65174;48.138;21.002;2023-04-03T11:08:42;99502.00;;;7.91;53.52
76126;BME280;65174;48.138;21.002;2023-04-03T11:14:54;99496.88;;;7.91;52.38
76126;BME280;65174;48.138;21.002;2023-04-03T11:20:06;99482.84;;;7.31;54.54
76126;BME280;65174;48.138;21.002;2023-04-03T11:30:34;99508.72;;;7.61;51.15
76126;BME280;65174;48.138;21.002;2023-04-03T11:35:43;99497.25;;;7.51;51.96
76126;BME280;65174;48.138;21.002;2023-04-03T11:40:47;99499.75;;;7.01;51.20
76126;BME280;65174;48.138;21.002;2023-04-03T11:50:56;99525.56;;;7.49;52.89
76126;BME280;65174;48.138;21.002;2023-04-03T12:20:00;99505.53;;;6.52;52.63
76126;BME280;65174;48.138;21.002;2023-04-03T12:24:12;99504.28;;;7.30;53.15
76126;BME280;65174;48.138;21.002;2023-04-03T12:27:44;99553.91;;;6.59;51.40
76126;BME280;65174;48.138;21.002;2023-04-03T12:32:10;99501.56;;;6.82;52.35
76126;BME280;65174;48.138;21.002;2023-04-03T12:36:01;99506.75;;;6.26;53.76
76126;BME280;65174;48.138;21.002;2023-04-03T12:47:51;99516.09;;;6.27;53.14
76126;BME280;65174;48.138;21.002;2023-04-03T12:51:40;99480.28;;;6.44;52.71
76126;BME280;65174;48.138;21.002;2023-04-03T12:54:45;99521.84;;;6.51;50.94
76126;BME280;65174;48.138;21.002;2023-04-03T12:57:48;99523.84;;;6.44;52.77
76126;BME280;65174;48.138;21.002;2023-04-03T13:01:08;99489.06;;;6.57;52.77
76126;BME280;65174;48.138;21.002;2023-04-03T13:04:12;99493.50;;;6.35;53.44
76126;BME280;65174;48.138;21.002;2023-04-03T13:17:59;99501.75;;;5.86;52.61
76126;BME280;65174;48.138;21.002;2023-04-03T14:11:16;99497.78;;;5.58;53.39
76126;BME280;65174;48.138;21.002;2023-04-03T14:20:57;99498.56;;;5.00;53.14
76126;BME280;65174;48.138;21.002;2023-04-03T14:26:23;99510.25;;;5.66;53.29
76126;BME280;65174;48.138;21.002;2023-04-03T14:31:25;99511.34;;;5.20;53.05
76126;BME280;65174;48.138;21.002;2023-04-03T14:40:28;99498.44;;;5.23;53.17
76126;BME280;65174;48.138;21.002;2023-04-03T14:43:30;99504.19;;;5.08;53.02
76126;BME280;65174;48.138;21.002;2023-04-03T14:46:35;99510.50;;;5.00;52.90
76126;BME280;65174;48.138;21.002;2023-04-03T14:49:55;99532.06;;;5.14;53.06
76126;BME280;65174;48.138;21.002;2023-04-03T14:52:58;99515.94;;;4.70;52.78
76126;BME280;65174;48.138;21.002;2023-04-03T14:56:00;99530.66;;;4.42;52.57
76126;BME280;65174;48.138;21.002;2023-04-03T14:59:02;99511.97;;;4.42;53.41
76126;BME280;65174;48.138;21.002;2023-04-03T15:02:34;99540.56;;;4.28;53.38
76126;BME280;65174;48.138;21.002;2023-04-03T15:05:36;99545.56;;;4.53;54.12
76126;BME280;65174;48.138;21.002;2023-04-03T15:08:39;99527.31;;;4.19;53.42
76126;BME280;65174;48.138;21.002;2023-04-03T15:11:43;99533.72;;;4.29;53.69
76126;BME280;65174;48.138;21.002;2023-04-03T15:14:46;99540.38;;;3.86;53.04
76126;BME280;65174;48.138;21.002;2023-04-03T15:18:00;99537.78;;;4.11;53.35
76126;BME280;65174;48.138;21.002;2023-04-03T15:21:03;99549.94;;;4.04;53.63
76126;BME280;65174;48.138;21.002;2023-04-03T15:24:05;99550.66;;;3.85;53.23
76126;BME280;65174;48.138;21.002;2023-04-03T15:27:08;99547.81;;;3.92;52.46
76126;BME280;65174;48.138;21.002;2023-04-03T15:30:14;99555.16;;;3.52;52.54
76126;BME280;65174;48.138;21.002;2023-04-03T15:33:17;99558.81;;;3.70;52.09
76126;BME280;65174;48.138;21.002;2023-04-03T15:36:19;99548.16;;;3.59;52.27
76126;BME280;65174;48.138;21.002;2023-04-03T15:39:35;99545.97;;;3.48;52.19
76126;BME280;65174;48.138;21.002;2023-04-03T15:42:37;99567.63;;;3.61;52.22
76126;BME280;65174;48.138;21.002;2023-04-03T15:45:39;99554.94;;;3.60;53.60
76126;BME280;65174;48.138;21.002;2023-04-03T15:48:42;99574.44;;;3.36;51.99
76126;BME280;65174;48.138;21.002;2023-04-03T15:51:44;99588.06;;;3.35;52.60
76126;BME280;65174;48.138;21.002;2023-04-03T15:54:47;99572.78;;;3.35;51.23
76126;BME280;65174;48.138;21.002;2023-04-03T15:57:48;99578.03;;;3.29;51.45
76126;BME280;65174;48.138;21.002;2023-04-03T16:00:51;99577.09;;;3.58;51.89
76126;BME280;65174;48.138;21.002;2023-04-03T16:03:53;99572.25;;;3.50;51.08
76126;BME280;65174;48.138;21.002;2023-04-03T16:06:55;99566.06;;;3.33;51.89
76126;BME280;65174;48.138;21.002;2023-04-03T16:09:57;99552.72;;;3.25;53.12
76126;BME280;65174;48.138;21.002;2023-04-03T16:13:01;99550.31;;;2.94;52.00
76126;BME280;65174;48.138;21.002;2023-04-03T16:16:04;99562.00;;;3.01;53.32
76126;BME280;65174;48.138;21.002;2023-04-03T16:19:06;99556.56;;;3.11;53.49
76126;BME280;65174;48.138;21.002;2023-04-03T16:22:09;99561.16;;;3.00;54.43
76126;BME280;65174;48.138;21.002;2023-04-03T16:25:11;99559.06;;;2.85;54.46
76126;BME280;65174;48.138;21.002;2023-04-03T16:28:14;99564.53;;;2.73;52.60
76126;BME280;65174;48.138;21.002;2023-04-03T16:31:16;99591.47;;;2.82;51.65
76126;BME280;65174;48.138;21.002;2023-04-03T16:34:18;99572.25;;;2.70;52.28
76126;BME280;65174;48.138;21.002;2023-04-03T16:37:20;99578.56;;;2.59;53.58
76126;BME280;65174;48.138;21.002;2023-04-03T16:40:22;99604.88;;;2.59;52.78
76126;BME280;65174;48.138;21.002;2023-04-03T16:43:24;99583.47;;;2.65;52.06
76126;BME280;65174;48.138;21.002;2023-04-03T16:46:26;99584.13;;;2.71;52.82
76126;BME280;65174;48.138;21.002;2023-04-03T16:49:28;99596.53;;;2.54;54.02
76126;BME280;65174;48.138;21.002;2023-04-03T16:52:34;99600.78;;;2.54;54.54
76126;BME280;65174;48.138;21.002;2023-04-03T16:55:36;99625.69;;;2.44;54.75
76126;BME280;65174;48.138;21.002;2023-04-03T16:58:38;99600.00;;;2.22;55.64
76126;BME280;65174;48.138;21.002;2023-04-03T17:01:40;99611.97;;;2.19;55.89
76126;BME280;65174;48.138;21.002;2023-04-03T17:04:42;99616.03;;;2.24;55.31
76126;BME280;65174;48.138;21.002;2023-04-03T17:07:44;99628.94;;;2.18;55.32
76126;BME280;65174;48.138;21.002;2023-04-03T17:10:47;99626.41;;;2.18;54.29
76126;BME280;65174;48.138;21.002;2023-04-03T17:13:51;99621.97;;;2.25;54.55
76126;BME280;65174;48.138;21.002;2023-04-03T17:16:53;99630.47;;;2.25;54.59
76126;BME280;65174;48.138;21.002;2023-04-03T17:19:55;99622.19;;;2.17;52.21
76126;BME280;65174;48.138;21.002;2023-04-03T17:22:57;99666.31;;;2.16;53.81
76126;BME280;65174;48.138;21.002;2023-04-03T17:25:59;99644.78;;;1.97;54.64
76126;BME280;65174;48.138;21.002;2023-04-03T17:29:03;99638.78;;;2.00;55.64
76126;BME280;65174;48.138;21.002;2023-04-03T17:32:05;99648.44;;;1.87;55.69
76126;BME280;65174;48.138;21.002;2023-04-03T17:35:07;99641.44;;;1.95;55.94
76126;BME280;65174;48.138;21.002;2023-04-03T17:38:12;99626.22;;;1.61;57.44
76126;BME280;65174;48.138;21.002;2023-04-03T17:41:14;99644.00;;;1.61;57.74
76126;BME280;65174;48.138;21.002;2023-04-03T17:44:17;99642.31;;;1.62;57.22
76126;BME280;65174;48.138;21.002;2023-04-03T17:47:19;99656.81;;;1.58;57.90
76126;BME280;65174;48.138;21.002;2023-04-03T17:50:21;99648.97;;;1.68;57.39
76126;BME280;65174;48.138;21.002;2023-04-03T17:53:23;99670.22;;;1.65;58.82
76126;BME280;65174;48.138;21.002;2023-04-03T17:56:28;99676.16;;;1.64;58.12
76126;BME280;65174;48.138;21.002;2023-04-03T17:59:30;99657.13;;;1.45;58.55
76126;BME280;65174;48.138;21.002;2023-04-03T18:02:32;99683.06;;;1.59;58.36
76126;BME280;65174;48.138;21.002;2023-04-03T18:05:35;99675.66;;;1.50;59.26
76126;BME280;65174;48.138;21.002;2023-04-03T18:08:47;99698.56;;;1.48;57.80
76126;BME280;65174;48.138;21.002;2023-04-03T18:11:51;99664.31;;;1.63;57.38
76126;BME280;65174;48.138;21.002;2023-04-03T18:14:53;99701.44;;;1.70;57.22
76126;BME280;65174;48.138;21.002;2023-04-03T18:17:56;99695.69;;;1.62;57.57
76126;BME280;65174;48.138;21.002;2023-04-03T18:20:59;99729.50;;;1.66;56.54
76126;BME280;65174;48.138;21.002;2023-04-03T18:24:01;99707.66;;;1.58;56.82
76126;BME280;65174;48.138;21.002;2023-04-03T18:27:07;99716.84;;;1.64;56.25
76126;BME280;65174;48.138;21.002;2023-04-03T18:30:12;99746.75;;;1.53;57.08
76126;BME280;65174;48.138;21.002;2023-04-03T18:33:16;99733.13;;;1.57;56.43
76126;BME280;65174;48.138;21.002;2023-04-03T18:36:18;99712.88;;;1.52;57.60
76126;BME280;65174;48.138;21.002;2023-04-03T18:39:20;99694.84;;;1.63;57.52
76126;BME280;65174;48.138;21.002;2023-04-03T18:42:26;99706.00;;;1.56;57.94
76126;BME280;65174;48.138;21.002;2023-04-03T18:45:28;99711.75;;;1.64;58.57
76126;BME280;65174;48.138;21.002;2023-04-03T18:48:32;99711.16;;;1.53;58.58
76126;BME280;65174;48.138;21.002;2023-04-03T18:51:35;99703.56;;;1.51;58.33
76126;BME280;65174;48.138;21.002;2023-04-03T18:54:40;99710.59;;;1.40;59.77
76126;BME280;65174;48.138;21.002;2023-04-03T18:57:44;99724.00;;;1.47;60.04
76126;BME280;65174;48.138;21.002;2023-04-03T19:00:47;99719.13;;;1.39;60.11
76126;BME280;65174;48.138;21.002;2023-04-03T19:03:49;99735.72;;;1.54;59.08
76126;BME280;65174;48.138;21.002;2023-04-03T19:06:52;99717.56;;;1.34;59.63
76126;BME280;65174;48.138;21.002;2023-04-03T19:09:54;99750.50;;;1.37;59.24
76126;BME280;65174;48.138;21.002;2023-04-03T19:12:56;99723.06;;;1.51;59.04
76126;BME280;65174;48.138;21.002;2023-04-03T19:15:58;99719.91;;;1.41;59.25
76126;BME280;65174;48.138;21.002;2023-04-03T19:19:00;99719.81;;;1.46;59.15
76126;BME280;65174;48.138;21.002;2023-04-03T19:22:03;99708.06;;;1.42;59.08
76126;BME280;65174;48.138;21.002;2023-04-03T19:25:07;99698.78;;;1.39;57.88
76126;BME280;65174;48.138;21.002;2023-04-03T19:28:10;99686.13;;;1.38;58.44
76126;BME280;65174;48.138;21.002;2023-04-03T19:31:18;99687.56;;;1.48;58.10
76126;BME280;65174;48.138;21.002;2023-04-03T19:34:21;99696.38;;;1.33;57.92
76126;BME280;65174;48.138;21.002;2023-04-03T19:37:24;99685.22;;;1.39;58.70
76126;BME280;65174;48.138;21.002;2023-04-03T19:40:28;99673.22;;;1.45;57.48
76126;BME280;65174;48.138;21.002;2023-04-03T19:43:30;99665.00;;;1.36;58.01
76126;BME280;65174;48.138;21.002;2023-04-03T19:46:33;99676.69;;;1.41;58.76
76126;BME280;65174;48.138;21.002;2023-04-03T19:49:36;99680.84;;;1.45;59.03
76126;BME280;65174;48.138;21.002;2023-04-03T19:52:39;99679.34;;;1.37;59.47
76126;BME280;65174;48.138;21.002;2023-04-03T19:55:41;99677.72;;;1.34;59.19
76126;BME280;65174;48.138;21.002;2023-04-03T19:58:44;99667.34;;;1.43;58.86
76126;BME280;65174;48.138;21.002;2023-04-03T20:01:46;99667.41;;;1.40;58.67
76126;BME280;65174;48.138;21.002;2023-04-03T20:04:48;99659.91;;;1.36;58.13
76126;BME280;65174;48.138;21.002;2023-04-03T20:07:52;99651.50;;;1.32;58.33
76126;BME280;65174;48.138;21.002;2023-04-03T20:10:55;99644.66;;;1.34;58.32
76126;BME280;65174;48.138;21.002;2023-04-03T20:13:58;99628.66;;;1.31;56.91
76126;BME280;65174;48.138;21.002;2023-04-03T20:17:00;99641.22;;;1.37;57.42
76126;BME280;65174;48.138;21.002;2023-04-03T20:20:03;99633.50;;;1.41;57.31
76126;BME280;65174;48.138;21.002;2023-04-03T20:23:10;99629.63;;;1.27;57.77
76126;BME280;65174;48.138;21.002;2023-04-03T20:26:22;99621.25;;;1.22;57.38
76126;BME280;65174;48.138;21.002;2023-04-03T20:29:25;99627.03;;;1.28;56.43
76126;BME280;65174;48.138;21.002;2023-04-03T20:32:28;99601.47;;;1.34;57.03
76126;BME280;65174;48.138;21.002;2023-04-03T20:35:31;99594.78;;;1.32;57.04
76126;BME280;65174;48.138;21.002;2023-04-03T20:38:33;99606.53;;;1.34;57.34
76126;BME280;65174;48.138;21.002;2023-04-03T20:41:35;99609.22;;;1.30;57.09
76126;BME280;65174;48.138;21.002;2023-04-03T20:44:39;99621.66;;;1.40;57.27
76126;BME280;65174;48.138;21.002;2023-04-03T20:47:41;99645.38;;;1.41;56.65
76126;BME280;65174;48.138;21.002;2023-04-03T20:50:43;99579.38;;;1.38;57.03
76126;BME280;65174;48.138;21.002;2023-04-03T20:53:54;99598.88;;;1.37;56.57
76126;BME280;65174;48.138;21.002;2023-04-03T20:56:56;99620.78;;;1.41;56.60
76126;BME280;65174;48.138;21.002;2023-04-03T21:00:02;99612.69;;;1.26;56.91
76126;BME280;65174;48.138;21.002;2023-04-03T21:03:07;99610.94;;;1.29;57.12
76126;BME280;65174;48.138;21.002;2023-04-03T21:20:10;99566.03;;;1.30;56.83
76126;BME280;65174;48.138;21.002;2023-04-03T21:23:12;99550.22;;;1.51;56.22
76126;BME280;65174;48.138;21.002;2023-04-03T21:26:19;99594.47;;;1.44;56.42
76126;BME280;65174;48.138;21.002;2023-04-03T21:29:22;99547.03;;;1.43;56.39
76126;BME280;65174;48.138;21.002;2023-04-03T21:32:24;99544.31;;;1.49;56.41
76126;BME280;65174;48.138;21.002;2023-04-03T21:35:26;99558.78;;;1.48;56.43
76126;BME280;65174;48.138;21.002;2023-04-03T21:38:28;99556.41;;;1.41;56.84
76126;BME280;65174;48.138;21.002;2023-04-03T21:41:30;99576.84;;;1.38;56.25
76126;BME280;65174;48.138;21.002;2023-04-03T21:44:33;99534.94;;;1.51;56.87
76126;BME280;65174;48.138;21.002;2023-04-03T21:47:35;99541.56;;;1.58;56.36
76126;BME280;65174;48.138;21.002;2023-04-03T21:50:37;99519.22;;;1.37;56.52
76126;BME280;65174;48.138;21.002;2023-04-03T21:53:39;99576.56;;;1.48;56.22
76126;BME280;65174;48.138;21.002;2023-04-03T21:56:43;99540.47;;;1.36;57.27
76126;BME280;65174;48.138;21.002;2023-04-03T21:59:45;99516.75;;;1.35;57.01
76126;BME280;65174;48.138;21.002;2023-04-03T22:02:47;99526.34;;;1.56;56.72
76126;BME280;65174;48.138;21.002;2023-04-03T22:05:57;99515.72;;;1.42;57.26
76126;BME280;65174;48.138;21.002;2023-04-03T22:08:58;99510.53;;;1.45;56.63
76126;BME280;65174;48.138;21.002;2023-04-03T22:12:01;99525.84;;;1.44;57.56
76126;BME280;65174;48.138;21.002;2023-04-03T22:15:04;99504.66;;;1.43;57.44
76126;BME280;65174;48.138;21.002;2023-04-03T22:18:07;99510.66;;;1.41;57.09
76126;BME280;65174;48.138;21.002;2023-04-03T22:21:09;99514.16;;;1.37;57.87
76126;BME280;65174;48.138;21.002;2023-04-03T22:24:11;99518.50;;;1.33;57.64
76126;BME280;65174;48.138;21.002;2023-04-03T22:27:14;99515.75;;;1.41;57.45
76126;BME280;65174;48.138;21.002;2023-04-03T22:30:17;99512.34;;;1.40;57.11
76126;BME280;65174;48.138;21.002;2023-04-03T22:33:19;99560.66;;;1.40;57.70
76126;BME280;65174;48.138;21.002;2023-04-03T22:36:21;99520.66;;;1.47;56.96
76126;BME280;65174;48.138;21.002;2023-04-03T22:39:23;99519.75;;;1.49;56.56
76126;BME280;65174;48.138;21.002;2023-04-03T22:42:24;99520.66;;;1.47;57.55
76126;BME280;65174;48.138;21.002;2023-04-03T22:45:27;99528.56;;;1.36;57.16
76126;BME280;65174;48.138;21.002;2023-04-03T22:48:29;99529.28;;;1.41;57.64
76126;BME280;65174;48.138;21.002;2023-04-03T22:51:44;99512.69;;;1.28;57.49